Time;durP1;ratioP1;P1;durP2;ratioP2;P2;SDS_P1;SDS_P2;PMS_P1;PMS_P2;Temp;Humidity;BMP_temperature;BMP_pressure;BME280_temperature;BME280_humidity;BME280_pressure;Samples;Min_cycle;Max_cycle;Signal;HPM_P1;HPM_P2
2023/05/27 00:01:48;;;;;;;24.55;7.70;;;;;;;12.41;72.18;100565.13;5115190;28;20031;-77
2023/05/27 00:04:14;;;;;;;21.58;6.93;;;;;;;12.35;72.27;100567.16;5115315;28;20030;-77
2023/05/27 00:06:40;;;;;;;21.88;7.43;;;;;;;12.34;72.44;100566.28;5114870;28;20522;-77
2023/05/27 00:09:05;;;;;;;18.02;8.13;;;;;;;12.37;72.71;100578.38;5115226;28;20015;-77
2023/05/27 00:11:31;;;;;;;17.90;7.43;;;;;;;12.18;72.28;100539.09;5114462;28;20475;-77
2023/05/27 00:13:56;;;;;;;23.08;7.45;;;;;;;12.38;72.57;100583.53;5114588;28;20032;-77
2023/05/27 00:16:21;;;;;;;22.60;7.93;;;;;;;12.26;72.71;100563.09;5115187;28;20031;-77
2023/05/27 00:18:47;;;;;;;19.02;6.50;;;;;;;12.08;72.58;100528.13;5114460;28;20027;-77
2023/05/27 00:21:13;;;;;;;31.50;8.30;;;;;;;11.96;72.78;100532.03;5114686;28;20085;-77
2023/05/27 00:23:38;;;;;;;20.25;6.88;;;;;;;12.13;72.69;100556.66;5114374;28;20616;-77
2023/05/27 00:26:04;;;;;;;22.30;7.32;;;;;;;12.24;72.74;100570.16;5114741;28;20467;-77
2023/05/27 00:28:31;;;;;;;25.60;7.72;;;;;;;12.18;73.09;100581.72;5114696;28;20034;-77
2023/05/27 00:30:57;;;;;;;21.33;7.20;;;;;;;12.19;73.19;100575.56;5114418;28;20031;-77
2023/05/27 00:33:23;;;;;;;19.27;7.05;;;;;;;11.99;73.22;100552.81;5114451;28;20153;-77
2023/05/27 00:35:48;;;;;;;17.50;6.57;;;;;;;12.14;73.06;100574.06;5114182;28;20098;-77
2023/05/27 00:38:13;;;;;;;15.60;6.85;;;;;;;12.03;73.01;100556.19;5114284;28;20019;-77
2023/05/27 00:40:40;;;;;;;20.65;7.15;;;;;;;12.07;73.04;100575.19;5114240;28;20029;-77
2023/05/27 00:43:06;;;;;;;21.05;7.20;;;;;;;11.80;73.46;100545.69;5114257;28;20042;-77
2023/05/27 00:45:31;;;;;;;24.52;7.20;;;;;;;11.85;73.32;100547.28;5114278;28;20024;-77
2023/05/27 00:47:58;;;;;;;26.35;7.28;;;;;;;11.83;73.83;100561.28;5113958;28;20474;-77
2023/05/27 00:50:25;;;;;;;24.17;7.40;;;;;;;11.91;73.91;100587.97;5114176;28;20028;-77
2023/05/27 00:52:50;;;;;;;19.80;7.15;;;;;;;11.84;74.02;100582.13;5113958;28;20020;-77
2023/05/27 00:55:16;;;;;;;18.00;6.18;;;;;;;11.65;74.21;100550.59;5113943;28;20019;-77
2023/05/27 00:57:42;;;;;;;18.02;7.13;;;;;;;11.70;74.27;100577.38;5113997;28;20028;-77
2023/05/27 01:00:11;;;;;;;27.05;7.95;;;;;;;11.73;74.49;100586.84;5114099;28;20031;-77
2023/05/27 01:02:41;;;;;;;25.17;6.95;;;;;;;11.68;74.57;100575.72;5113669;28;20027;-77
2023/05/27 01:05:11;;;;;;;30.17;7.72;;;;;;;11.64;74.52;100575.00;5060894;28;20127;-77
2023/05/27 01:07:54;;;;;;;24.05;7.43;;;;;;;11.65;74.98;100579.28;5113699;28;20171;-77
2023/05/27 01:10:36;;;;;;;22.38;7.60;;;;;;;11.60;74.94;100583.00;5113855;28;20031;-77
2023/05/27 01:13:08;;;;;;;20.88;7.80;;;;;;;11.51;74.95;100578.94;5113789;28;20463;-77
2023/05/27 01:15:33;;;;;;;17.45;6.13;;;;;;;11.43;75.12;100566.16;5113584;28;20039;-77
2023/05/27 01:18:02;;;;;;;23.75;6.78;;;;;;;11.36;75.02;100548.19;5113685;28;20024;-77
2023/05/27 01:20:29;;;;;;;23.83;7.57;;;;;;;11.46;75.57;100579.13;5113736;28;20023;-77
2023/05/27 01:22:57;;;;;;;20.38;7.57;;;;;;;11.43;75.37;100579.22;5112450;28;20034;-77
2023/05/27 01:25:23;;;;;;;24.20;8.32;;;;;;;11.39;75.52;100568.94;5113532;28;20055;-77
2023/05/27 01:27:48;;;;;;;18.98;8.27;;;;;;;11.39;75.73;100582.84;5113278;28;20024;-77
2023/05/27 01:30:14;;;;;;;22.77;8.30;;;;;;;11.36;75.89;100580.31;5113523;28;20032;-77
2023/05/27 01:32:53;;;;;;;25.58;7.00;;;;;;;11.19;75.94;100560.06;5113280;28;20023;-77
2023/05/27 01:35:23;;;;;;;21.05;7.68;;;;;;;11.32;76.11;100580.50;5113291;28;20024;-76
2023/05/27 01:37:51;;;;;;;23.13;7.57;;;;;;;11.02;76.25;100548.50;5112967;28;20028;-77
2023/05/27 01:40:17;;;;;;;26.95;8.05;;;;;;;11.24;76.57;100583.34;5113168;28;20614;-77
2023/05/27 01:42:44;;;;;;;20.67;7.57;;;;;;;11.07;76.71;100546.59;5112789;28;20031;-76
2023/05/27 01:45:10;;;;;;;25.88;8.00;;;;;;;11.21;76.63;100584.34;5112933;28;20471;-76
2023/05/27 01:47:36;;;;;;;19.92;7.65;;;;;;;11.16;76.87;100570.56;5112985;28;20107;-76
2023/05/27 01:50:02;;;;;;;21.92;7.85;;;;;;;11.03;76.89;100555.41;5112790;28;20185;-76
2023/05/27 01:52:27;;;;;;;19.35;7.35;;;;;;;10.90;77.32;100563.66;5113275;28;20027;-77
2023/05/27 01:54:52;;;;;;;19.10;6.93;;;;;;;10.91;77.25;100561.88;5112544;28;20383;-77
2023/05/27 01:57:19;;;;;;;21.52;7.07;;;;;;;10.89;77.18;100548.91;5112685;28;20024;-76
2023/05/27 01:59:44;;;;;;;19.98;7.32;;;;;;;11.06;77.35;100590.06;5112773;28;20039;-77
2023/05/27 02:02:10;;;;;;;21.65;7.53;;;;;;;11.02;77.35;100592.81;5112891;28;20023;-77
2023/05/27 02:04:35;;;;;;;27.45;7.50;;;;;;;10.97;77.29;100561.69;5112718;28;20037;-76
2023/05/27 02:07:01;;;;;;;15.05;6.32;;;;;;;10.94;77.52;100583.50;5112582;28;20109;-76
2023/05/27 02:09:26;;;;;;;23.45;7.57;;;;;;;10.99;77.36;100578.97;5112674;28;20102;-77
2023/05/27 02:11:51;;;;;;;25.90;8.38;;;;;;;10.80;77.56;100569.22;5112268;28;20053;-77
2023/05/27 02:14:17;;;;;;;24.13;8.65;;;;;;;10.74;77.75;100555.50;5112327;28;20065;-77
2023/05/27 02:16:43;;;;;;;21.85;7.78;;;;;;;10.79;77.80;100576.19;5112446;28;20031;-77
2023/05/27 02:19:09;;;;;;;19.88;7.38;;;;;;;10.88;77.78;100593.28;5112630;28;20482;-77
2023/05/27 02:21:35;;;;;;;19.60;7.03;;;;;;;10.67;77.88;100560.97;5112511;28;20089;-77
2023/05/27 02:24:01;;;;;;;21.75;7.75;;;;;;;10.86;77.88;100587.25;5112315;28;20032;-77
2023/05/27 02:26:26;;;;;;;23.35;7.55;;;;;;;10.72;77.96;100569.47;5112407;28;20550;-77
2023/05/27 02:28:52;;;;;;;23.98;8.27;;;;;;;10.77;78.26;100593.63;5112324;28;20028;-76
2023/05/27 02:31:17;;;;;;;30.60;8.25;;;;;;;10.75;78.33;100590.22;5112577;28;20475;-77
2023/05/27 02:33:43;;;;;;;26.27;8.63;;;;;;;10.63;78.09;100574.97;5112053;28;20096;-77
2023/05/27 02:36:08;;;;;;;24.38;8.27;;;;;;;10.77;78.42;100600.59;5112543;28;20034;-77
2023/05/27 02:38:33;;;;;;;25.98;8.48;;;;;;;10.57;78.78;100585.59;5112333;28;20502;-77
2023/05/27 02:40:59;;;;;;;24.42;7.90;;;;;;;10.50;78.75;100577.13;5111925;28;20542;-77
2023/05/27 02:43:24;;;;;;;26.92;8.23;;;;;;;10.60;78.92;100607.19;5112438;28;20644;-77
2023/05/27 02:45:50;;;;;;;21.75;7.57;;;;;;;10.49;79.15;100593.63;5112127;28;20023;-77
2023/05/27 02:48:15;;;;;;;20.98;8.02;;;;;;;10.43;79.26;100606.84;5112196;28;20039;-77
2023/05/27 02:50:40;;;;;;;21.33;7.13;;;;;;;10.49;79.49;100606.66;5112345;28;20150;-77
2023/05/27 02:53:06;;;;;;;21.52;7.82;;;;;;;10.52;79.33;100610.94;5111860;28;20050;-77
2023/05/27 02:55:31;;;;;;;22.60;8.45;;;;;;;10.40;79.13;100588.72;5111986;28;20024;-77
2023/05/27 02:57:56;;;;;;;23.42;8.38;;;;;;;10.35;79.43;100583.66;5112101;28;20088;-77
2023/05/27 03:00:22;;;;;;;19.70;8.05;;;;;;;10.54;79.29;100616.97;5112525;28;20028;-77
2023/05/27 03:02:47;;;;;;;23.42;8.68;;;;;;;10.50;79.35;100613.59;5112015;28;20564;-77
2023/05/27 03:05:13;;;;;;;19.33;7.47;;;;;;;10.41;79.16;100612.13;5112190;28;20019;-77
2023/05/27 03:07:40;;;;;;;18.95;7.03;;;;;;;10.29;79.52;100599.47;5112028;28;20024;-77
2023/05/27 03:10:06;;;;;;;25.42;8.55;;;;;;;10.41;79.62;100613.88;5111595;28;20027;-77
2023/05/27 03:12:31;;;;;;;26.08;8.07;;;;;;;10.32;79.60;100595.91;5112105;28;20027;-76
2023/05/27 03:14:57;;;;;;;23.20;8.15;;;;;;;10.27;79.88;100590.84;5111497;28;20071;-77
2023/05/27 03:17:22;;;;;;;17.88;7.20;;;;;;;10.23;79.83;100590.03;5112358;28;20066;-77
2023/05/27 03:19:48;;;;;;;21.38;7.32;;;;;;;10.38;79.96;100614.81;5111628;28;20138;-77
2023/05/27 03:22:13;;;;;;;19.00;7.13;;;;;;;10.31;79.86;100602.88;5111947;28;20447;-77
2023/05/27 03:24:40;;;;;;;19.45;8.23;;;;;;;10.28;79.86;100596.91;5111754;28;20019;-77
2023/05/27 03:27:05;;;;;;;20.30;7.75;;;;;;;10.47;80.04;100627.56;5111499;28;20459;-76
2023/05/27 03:29:31;;;;;;;25.88;8.30;;;;;;;10.33;79.93;100606.28;5111928;28;20024;-77
2023/05/27 03:31:56;;;;;;;25.95;8.57;;;;;;;10.31;80.06;100602.88;5111703;28;20048;-77
2023/05/27 03:34:22;;;;;;;23.83;9.02;;;;;;;10.52;80.26;100630.00;5111772;28;20023;-77
2023/05/27 03:36:49;;;;;;;23.45;8.35;;;;;;;10.37;80.11;100602.69;5111451;28;20026;-77
2023/05/27 03:39:16;;;;;;;23.58;7.88;;;;;;;10.39;80.24;100610.47;5111625;28;20059;-77
2023/05/27 03:41:42;;;;;;;21.58;7.82;;;;;;;10.44;80.21;100614.63;5111821;28;20039;-76
2023/05/27 03:44:07;;;;;;;24.05;8.27;;;;;;;10.48;80.50;100613.63;5111731;28;20028;-77
2023/05/27 03:46:34;;;;;;;24.48;7.95;;;;;;;10.59;80.04;100639.34;5113622;28;20126;-77
2023/05/27 03:48:59;;;;;;;24.48;8.48;;;;;;;10.61;79.89;100628.88;5115283;28;20035;-77
2023/05/27 03:51:25;;;;;;;20.33;7.85;;;;;;;10.67;79.79;100642.56;5115348;28;20031;-77
2023/05/27 03:53:50;;;;;;;21.35;8.77;;;;;;;10.79;79.63;100638.75;5114779;28;20020;-77
2023/05/27 03:56:16;;;;;;;22.90;8.80;;;;;;;10.79;79.85;100640.47;5115386;28;20054;-77
2023/05/27 03:58:41;;;;;;;21.25;7.95;;;;;;;10.61;79.59;100615.84;5115188;28;20055;-77
2023/05/27 04:01:06;;;;;;;24.83;8.25;;;;;;;10.81;79.57;100641.28;5115001;28;20028;-77
2023/05/27 04:03:32;;;;;;;23.05;7.55;;;;;;;10.65;79.81;100627.88;5115086;28;20015;-77
2023/05/27 04:05:58;;;;;;;23.42;8.30;;;;;;;10.71;79.94;100625.09;5114790;28;20031;-77
2023/05/27 04:08:25;;;;;;;19.10;8.52;;;;;;;11.05;79.50;100648.31;5114624;28;20028;-77
2023/05/27 04:10:51;;;;;;;21.42;7.30;;;;;;;11.65;77.54;100622.81;5114833;28;20031;-77
2023/05/27 04:13:17;;;;;;;17.65;6.95;;;;;;;12.59;73.99;100617.56;5115167;28;20036;-77
2023/05/27 04:15:42;;;;;;;24.98;8.10;;;;;;;13.42;71.41;100634.22;5114959;28;20024;-77
2023/05/27 04:18:07;;;;;;;22.02;8.00;;;;;;;13.82;69.44;100642.09;5114653;28;20111;-77
2023/05/27 04:20:41;;;;;;;18.92;7.93;;;;;;;13.83;69.56;100656.91;5114833;28;20030;-77
2023/05/27 04:23:07;;;;;;;19.83;7.55;;;;;;;13.51;70.08;100642.59;5114432;28;20123;-77
2023/05/27 04:25:34;;;;;;;21.55;7.32;;;;;;;13.26;70.61;100622.69;5114851;28;20027;-77
2023/05/27 04:27:59;;;;;;;20.50;8.38;;;;;;;13.39;70.69;100657.03;5114498;28;20031;-77
2023/05/27 04:30:25;;;;;;;21.88;8.18;;;;;;;13.27;70.86;100645.31;5114708;28;20024;-77
2023/05/27 04:32:52;;;;;;;20.33;8.23;;;;;;;13.53;70.02;100641.63;5114250;28;20027;-77
2023/05/27 04:35:18;;;;;;;19.73;7.45;;;;;;;14.32;68.21;100634.56;5114358;28;20073;-77
2023/05/27 04:37:44;;;;;;;20.52;8.05;;;;;;;15.26;65.10;100645.84;5114378;28;20028;-77
2023/05/27 04:40:10;;;;;;;16.17;7.35;;;;;;;15.77;63.59;100633.63;5114094;28;20035;-77
2023/05/27 04:42:36;;;;;;;18.92;8.05;;;;;;;15.95;63.26;100656.31;5114243;28;20414;-77
2023/05/27 04:45:06;;;;;;;19.20;7.80;;;;;;;15.51;63.79;100648.09;5114142;28;20024;-77
2023/05/27 04:47:36;;;;;;;22.30;8.95;;;;;;;15.13;64.99;100661.38;5114205;28;20041;-77
2023/05/27 04:50:05;;;;;;;22.45;8.98;;;;;;;15.04;65.88;100664.41;5113948;28;20528;-77
2023/05/27 04:52:36;;;;;;;20.67;7.63;;;;;;;15.05;65.81;100672.22;5062571;28;20036;-77
2023/05/27 04:55:05;;;;;;;21.52;7.43;;;;;;;15.10;65.33;100656.25;5113799;28;20020;-77
2023/05/27 04:57:31;;;;;;;22.20;8.77;;;;;;;15.89;63.87;100670.63;5113845;28;20491;-77
2023/05/27 05:02:34;;;;;;;20.73;7.53;;;;;;;17.27;59.71;100670.06;5113910;28;20120;-77
2023/05/27 05:05:03;;;;;;;;;;;;;;;17.26;59.63;100671.84;5061430;28;20403;-77
2023/05/27 05:07:28;;;;;;;19.73;7.13;;;;;;;16.93;60.25;100672.00;5114066;28;19960;-77
2023/05/27 05:09:54;;;;;;;16.75;7.43;;;;;;;16.59;60.88;100659.84;5113676;28;20031;-78
2023/05/27 05:12:19;;;;;;;18.88;8.02;;;;;;;16.33;61.52;100648.16;5113696;28;20030;-77
2023/05/27 05:14:45;;;;;;;20.48;8.18;;;;;;;16.58;61.64;100677.41;5113862;28;20044;-77
2023/05/27 05:17:10;;;;;;;20.92;7.72;;;;;;;16.68;60.91;100660.19;5113312;28;20023;-77
2023/05/27 05:19:36;;;;;;;22.63;7.65;;;;;;;17.36;59.89;100665.13;5113481;28;20032;-77
2023/05/27 05:22:01;;;;;;;19.25;7.97;;;;;;;18.34;57.29;100647.78;5113531;28;20024;-77
2023/05/27 05:24:27;;;;;;;17.60;7.60;;;;;;;18.92;55.60;100660.78;5113597;28;20047;-78
2023/05/27 05:26:52;;;;;;;17.00;8.40;;;;;;;18.80;55.56;100658.09;5113236;28;20059;-78
2023/05/27 05:29:17;;;;;;;15.90;8.02;;;;;;;18.30;56.48;100646.28;5113351;28;20106;-78
2023/05/27 05:31:44;;;;;;;16.52;6.60;;;;;;;18.17;56.94;100654.13;5113272;28;20472;-78
2023/05/27 05:34:10;;;;;;;20.15;8.23;;;;;;;18.16;57.01;100674.38;5113160;28;20028;-78
2023/05/27 05:36:36;;;;;;;15.32;6.45;;;;;;;18.27;57.05;100660.50;5113199;28;20509;-78
2023/05/27 05:39:02;;;;;;;17.98;7.25;;;;;;;18.74;56.64;100682.22;5112998;28;20073;-78
2023/05/27 05:41:28;;;;;;;19.92;7.68;;;;;;;19.62;54.76;100694.03;5113121;28;20428;-78
2023/05/27 05:43:54;;;;;;;22.63;8.75;;;;;;;19.92;53.11;100688.44;5112769;28;20039;-78
2023/05/27 05:46:19;;;;;;;16.67;7.25;;;;;;;19.53;53.77;100681.41;5113038;28;20031;-78
2023/05/27 05:48:45;;;;;;;14.68;7.40;;;;;;;19.47;54.33;100677.41;5113495;28;20615;-78
2023/05/27 05:51:10;;;;;;;17.15;8.57;;;;;;;19.66;54.45;100691.06;5112757;28;20028;-78
2023/05/27 05:53:35;;;;;;;20.38;8.20;;;;;;;19.90;53.68;100675.34;5112830;28;20027;-78
2023/05/27 05:56:01;;;;;;;17.23;7.07;;;;;;;19.93;53.47;100661.91;5112741;28;20031;-78
2023/05/27 05:58:26;;;;;;;23.02;8.35;;;;;;;20.44;51.92;100684.81;5112809;28;20050;-78
2023/05/27 06:00:52;;;;;;;23.92;7.95;;;;;;;21.17;51.21;100686.56;5112822;28;20046;-78
2023/05/27 06:03:17;;;;;;;18.73;8.30;;;;;;;21.40;49.93;100664.50;5112520;28;20383;-78
2023/05/27 06:05:42;;;;;;;20.52;8.52;;;;;;;21.74;49.63;100690.25;5113161;28;20039;-78
2023/05/27 06:08:08;;;;;;;18.45;7.85;;;;;;;21.78;49.39;100699.66;5112330;28;20380;-78
2023/05/27 06:10:33;;;;;;;16.65;7.65;;;;;;;21.68;50.26;100683.63;5112532;28;20066;-78
2023/05/27 06:12:58;;;;;;;16.00;7.85;;;;;;;22.14;49.38;100678.25;5112516;28;20030;-78
2023/05/27 06:15:24;;;;;;;14.35;7.78;;;;;;;22.83;46.36;100678.03;5112466;28;20051;-78
2023/05/27 06:17:49;;;;;;;16.05;6.78;;;;;;;23.97;45.96;100692.50;5112615;28;20016;-78
2023/05/27 06:20:14;;;;;;;14.35;7.13;;;;;;;24.49;44.18;100688.00;5076331;28;20130;-78
2023/05/27 06:22:40;;;;;;;13.27;6.60;;;;;;;24.38;43.55;100695.09;5112629;28;20027;-78
2023/05/27 06:25:06;;;;;;;18.75;7.57;;;;;;;23.64;43.30;100697.91;5112335;28;20070;-78
2023/05/27 06:27:31;;;;;;;14.80;6.78;;;;;;;23.34;45.11;100716.41;5112536;28;20024;-78
2023/05/27 06:29:56;;;;;;;13.18;6.72;;;;;;;24.46;43.60;100704.25;5112211;28;20027;-79
2023/05/27 06:32:22;;;;;;;10.57;5.60;;;;;;;25.44;42.41;100696.25;5112599;28;20066;-79
2023/05/27 06:34:47;;;;;;;11.35;5.95;;;;;;;26.16;40.50;100693.97;5112455;28;20494;-79
2023/05/27 06:37:13;;;;;;;14.57;6.13;;;;;;;26.94;40.02;100710.47;5112294;28;20019;-79
2023/05/27 06:39:38;;;;;;;12.32;5.97;;;;;;;27.57;38.67;100697.84;5112331;28;20030;-79
2023/05/27 06:42:04;;;;;;;11.85;6.32;;;;;;;28.28;37.97;100704.84;5112133;28;20082;-79
2023/05/27 06:44:29;;;;;;;11.15;5.85;;;;;;;28.60;36.58;100697.94;5093948;28;20059;-79
2023/05/27 06:46:54;;;;;;;11.10;5.80;;;;;;;28.94;36.45;100702.38;5112142;28;20027;-78
2023/05/27 06:49:20;;;;;;;11.63;5.70;;;;;;;29.32;36.58;100682.16;5112196;28;20383;-79
2023/05/27 06:51:45;;;;;;;8.50;5.32;;;;;;;30.01;35.94;100680.72;5112300;28;20024;-79
2023/05/27 06:54:12;;;;;;;8.18;4.95;;;;;;;30.53;34.56;100688.25;5111936;28;20027;-79
2023/05/27 06:56:37;;;;;;;11.13;5.85;;;;;;;30.96;33.76;100695.94;5111929;28;20030;-79
2023/05/27 06:59:03;;;;;;;9.30;5.32;;;;;;;31.27;34.05;100685.13;5111913;28;20028;-79
2023/05/27 07:01:28;;;;;;;13.05;5.82;;;;;;;31.21;33.95;100699.28;5111997;28;20034;-79
2023/05/27 07:03:53;;;;;;;10.65;5.00;;;;;;;31.53;33.72;100699.03;5112363;28;20031;-79
2023/05/27 07:06:19;;;;;;;8.25;4.35;;;;;;;31.48;32.81;100693.38;5111759;28;20054;-77
2023/05/27 07:08:44;;;;;;;9.50;5.20;;;;;;;31.41;33.03;100691.59;5112083;28;20088;-77
2023/05/27 07:11:09;;;;;;;9.82;4.35;;;;;;;31.49;33.12;100686.97;5111854;28;20055;-77
2023/05/27 07:13:35;;;;;;;7.47;4.68;;;;;;;32.06;32.49;100707.09;5111757;28;20067;-77
2023/05/27 07:16:00;;;;;;;9.52;5.30;;;;;;;32.33;32.72;100696.69;5111700;28;20031;-77
2023/05/27 07:18:25;;;;;;;11.38;4.25;;;;;;;32.13;32.17;100696.44;5112109;28;20081;-77
2023/05/27 07:20:51;;;;;;;8.93;4.53;;;;;;;31.99;31.86;100688.16;5112774;28;20023;-77
2023/05/27 07:23:16;;;;;;;9.57;4.22;;;;;;;31.86;32.36;100685.28;5115596;28;20111;-77
2023/05/27 07:25:42;;;;;;;10.98;4.78;;;;;;;32.06;32.49;100685.53;5115891;28;20028;-77
2023/05/27 07:28:07;;;;;;;6.65;3.65;;;;;;;32.01;32.33;100683.41;5115558;28;20413;-77
2023/05/27 07:30:32;;;;;;;9.27;4.20;;;;;;;32.35;31.98;100684.69;5115719;28;20061;-77
2023/05/27 07:32:58;;;;;;;8.48;4.32;;;;;;;32.53;32.07;100687.84;5115859;28;20059;-77
2023/05/27 07:35:23;;;;;;;6.35;4.45;;;;;;;32.92;31.47;100672.31;5115643;28;20077;-76
2023/05/27 07:37:49;;;;;;;8.02;4.25;;;;;;;33.50;31.32;100687.41;5115525;28;20061;-77
2023/05/27 07:40:14;;;;;;;10.32;4.78;;;;;;;32.51;31.48;100673.72;5115157;28;20023;-77
2023/05/27 07:42:39;;;;;;;6.43;4.10;;;;;;;32.71;31.28;100689.28;5115481;28;20028;-77
2023/05/27 07:45:05;;;;;;;8.18;4.45;;;;;;;32.66;31.07;100683.66;5115175;28;20024;-77
2023/05/27 07:47:31;;;;;;;8.15;4.57;;;;;;;32.90;30.94;100687.81;5096896;28;20484;-78
2023/05/27 07:49:56;;;;;;;8.10;4.25;;;;;;;32.42;31.40;100680.25;5115428;28;20024;-79
2023/05/27 07:52:22;;;;;;;8.73;4.30;;;;;;;32.64;31.33;100667.63;5115171;28;20027;-79
2023/05/27 07:54:48;;;;;;;9.07;4.10;;;;;;;32.54;31.82;100680.59;5115168;28;20030;-79
2023/05/27 07:57:16;;;;;;;7.78;4.78;;;;;;;31.48;32.03;100636.00;5114933;28;20058;-79
2023/05/27 07:59:41;;;;;;;7.93;3.92;;;;;;;31.94;32.36;100644.78;5114901;28;20019;-79
2023/05/27 08:02:07;;;;;;;9.27;4.72;;;;;;;32.47;32.04;100666.19;5114904;28;20044;-79
2023/05/27 08:04:32;;;;;;;10.15;4.68;;;;;;;32.09;31.18;100650.13;5115569;28;20027;-79
2023/05/27 08:06:58;;;;;;;8.20;4.43;;;;;;;31.52;32.11;100665.06;5095884;28;20391;-79
2023/05/27 08:09:24;;;;;;;10.60;5.38;;;;;;;30.41;32.86;100648.50;5114482;28;20019;-79
2023/05/27 08:11:49;;;;;;;9.05;4.53;;;;;;;28.89;34.65;100648.41;5114779;28;20023;-79
2023/05/27 08:14:15;;;;;;;9.73;4.53;;;;;;;27.83;36.09;100638.16;5114531;28;20036;-78
2023/05/27 08:16:41;;;;;;;13.15;4.53;;;;;;;26.93;36.94;100642.81;5115085;28;20371;-78
2023/05/27 08:19:07;;;;;;;11.05;5.22;;;;;;;26.08;38.25;100641.31;5114774;28;20028;-78
2023/05/27 08:21:32;;;;;;;11.82;5.20;;;;;;;25.52;39.30;100640.34;5110950;28;20027;-78
2023/05/27 08:23:58;;;;;;;9.57;4.90;;;;;;;25.00;39.58;100644.31;5108022;28;20039;-78
2023/05/27 08:26:23;;;;;;;10.32;5.07;;;;;;;24.24;40.59;100630.72;5114463;28;20111;-78
2023/05/27 08:28:48;;;;;;;8.77;5.22;;;;;;;23.74;41.24;100651.94;5114590;28;20588;-78
2023/05/27 08:31:14;;;;;;;9.52;4.70;;;;;;;23.45;41.81;100622.47;5107467;28;20032;-78
2023/05/27 08:33:39;;;;;;;9.23;4.68;;;;;;;23.24;41.94;100655.22;5101011;28;20077;-78
2023/05/27 08:36:05;;;;;;;10.75;5.65;;;;;;;22.90;42.24;100639.41;5096234;28;20028;-78
2023/05/27 08:38:31;;;;;;;13.18;5.00;;;;;;;22.87;42.45;100652.91;5104347;28;20026;-78
2023/05/27 08:40:57;;;;;;;9.55;4.47;;;;;;;22.44;42.70;100644.94;5104972;28;20024;-78
2023/05/27 08:43:23;;;;;;;13.55;5.43;;;;;;;22.14;42.70;100642.94;5101718;28;20057;-78
2023/05/27 08:45:49;;;;;;;8.82;4.25;;;;;;;21.94;43.38;100660.38;5114333;28;20102;-78
2023/05/27 08:48:15;;;;;;;11.50;4.60;;;;;;;21.75;44.02;100631.81;5114156;28;20038;-78
2023/05/27 08:50:41;;;;;;;9.88;4.60;;;;;;;21.76;44.45;100641.44;5114398;28;20020;-78
2023/05/27 08:53:08;;;;;;;10.93;4.45;;;;;;;21.55;44.12;100620.09;5113787;28;20032;-78
2023/05/27 08:55:34;;;;;;;14.65;5.03;;;;;;;21.43;44.88;100602.47;5114100;28;20023;-78
2023/05/27 08:58:02;;;;;;;11.80;5.63;;;;;;;21.49;44.74;100625.88;5113895;28;20028;-78
2023/05/27 09:00:27;;;;;;;9.63;5.13;;;;;;;21.10;45.36;100608.50;5113701;28;20487;-78
2023/05/27 09:02:59;;;;;;;9.00;4.20;;;;;;;21.16;45.51;100639.84;5114082;28;20026;-78
2023/05/27 09:05:25;;;;;;;7.85;4.57;;;;;;;20.98;45.94;100618.19;5113625;28;20055;-78
2023/05/27 09:07:51;;;;;;;10.98;4.95;;;;;;;21.22;45.63;100647.31;5113794;28;20063;-78
2023/05/27 09:10:16;;;;;;;10.82;5.50;;;;;;;21.11;45.84;100620.78;5113525;28;20028;-78
2023/05/27 09:12:44;;;;;;;9.85;4.45;;;;;;;21.01;45.64;100612.69;5113710;28;20505;-78
2023/05/27 09:15:10;;;;;;;11.35;4.75;;;;;;;20.75;45.60;100606.69;5113473;28;20051;-78
2023/05/27 09:17:44;;;;;;;11.38;4.63;;;;;;;20.81;46.41;100638.00;5113749;28;20544;-78
2023/05/27 09:20:10;;;;;;;8.35;4.35;;;;;;;20.88;45.50;100633.94;5113116;28;20664;-78
2023/05/27 09:22:37;;;;;;;12.75;4.68;;;;;;;20.92;45.16;100640.69;5113386;28;20024;-77
2023/05/27 09:25:03;;;;;;;8.45;4.55;;;;;;;20.63;46.48;100618.16;5113325;28;20028;-78
2023/05/27 09:27:30;;;;;;;7.97;4.47;;;;;;;20.43;46.22;100615.13;5113632;28;20074;-78
2023/05/27 09:29:57;;;;;;;12.80;4.32;;;;;;;20.49;47.10;100623.63;5113284;28;20551;-77
2023/05/27 09:32:31;;;;;;;10.40;4.07;;;;;;;20.56;46.04;100625.72;5113168;28;20035;-78
2023/05/27 09:35:01;;;;;;;11.23;4.50;;;;;;;20.58;46.74;100625.59;5094169;28;20032;-78
2023/05/27 09:37:34;;;;;;;12.07;4.68;;;;;;;20.32;45.99;100625.66;5092698;28;20020;-77
2023/05/27 09:40:15;;;;;;;10.88;4.70;;;;;;;20.20;47.19;100626.53;5092684;28;20028;-78
2023/05/27 09:42:50;;;;;;;12.07;5.40;;;;;;;20.10;46.27;100586.69;5092993;28;20023;-78
2023/05/27 09:45:20;;;;;;;9.88;4.80;;;;;;;20.16;46.31;100601.25;5091929;28;20383;-77
2023/05/27 09:47:53;;;;;;;10.50;4.40;;;;;;;20.38;46.25;100611.13;5040657;28;20070;-78
2023/05/27 09:50:21;;;;;;;9.30;4.88;;;;;;;20.43;46.27;100609.84;5097018;28;20030;-78
2023/05/27 09:52:47;;;;;;;11.15;4.93;;;;;;;20.44;46.08;100594.84;5112498;28;20038;-78
2023/05/27 09:55:14;;;;;;;8.68;4.30;;;;;;;20.59;45.90;100604.31;5112461;28;20031;-78
2023/05/27 09:57:40;;;;;;;8.60;4.05;;;;;;;20.61;46.21;100604.22;5112714;28;20461;-78
2023/05/27 10:00:17;;;;;;;9.20;4.35;;;;;;;20.58;45.55;100588.56;5112594;28;20027;-77
2023/05/27 10:02:45;;;;;;;12.57;5.05;;;;;;;20.45;45.77;100591.22;5112217;28;20389;-77
2023/05/27 10:05:13;;;;;;;9.80;4.68;;;;;;;20.36;46.04;100594.53;5112348;28;20027;-78
2023/05/27 10:07:40;;;;;;;10.45;4.47;;;;;;;20.31;45.56;100594.00;5112693;28;20026;-78
2023/05/27 10:10:08;;;;;;;9.38;4.85;;;;;;;20.21;45.42;100600.94;5112190;28;20035;-77
2023/05/27 10:12:35;;;;;;;11.50;4.38;;;;;;;20.09;45.62;100600.00;5097437;27;20391;-77
2023/05/27 10:15:00;;;;;;;12.38;4.70;;;;;;;19.99;46.31;100589.22;5132899;27;20079;-77
2023/05/27 10:17:29;;;;;;;12.50;4.20;;;;;;;19.98;46.22;100589.34;5132253;27;20043;-78
2023/05/27 10:19:56;;;;;;;11.07;4.25;;;;;;;20.15;46.52;100599.56;5132967;27;20030;-78
2023/05/27 10:22:23;;;;;;;10.10;3.85;;;;;;;20.07;45.80;100586.06;5132279;27;20027;-78
2023/05/27 10:24:49;;;;;;;6.45;3.60;;;;;;;20.24;45.58;100609.50;5132502;27;20030;-78
2023/05/27 10:27:15;;;;;;;7.80;3.78;;;;;;;20.12;45.17;100583.91;5132109;27;20503;-78
2023/05/27 10:29:41;;;;;;;7.05;3.40;;;;;;;20.35;45.61;100588.41;5132537;27;20043;-78
2023/05/27 10:32:07;;;;;;;6.15;3.40;;;;;;;20.38;43.93;100577.56;5132937;27;20030;-78
2023/05/27 10:34:43;;;;;;;9.23;3.90;;;;;;;20.23;44.03;100585.81;5113738;27;20027;-78
2023/05/27 10:37:10;;;;;;;6.47;3.20;;;;;;;20.20;45.38;100563.06;5132669;27;20023;-78
2023/05/27 10:39:36;;;;;;;8.25;4.40;;;;;;;20.39;44.64;100570.47;5132502;27;20023;-78
2023/05/27 10:42:01;;;;;;;8.70;3.95;;;;;;;20.39;43.49;100562.53;5132515;28;20038;-78
2023/05/27 10:44:39;;;;;;;10.43;4.22;;;;;;;20.28;43.62;100559.84;5131921;27;20031;-78
2023/05/27 10:47:08;;;;;;;5.32;3.13;;;;;;;20.43;43.63;100582.53;5132450;27;20031;-78
2023/05/27 10:49:35;;;;;;;10.43;3.92;;;;;;;20.36;44.68;100555.69;5132203;28;20022;-78
2023/05/27 10:52:10;;;;;;;6.30;3.25;;;;;;;20.59;43.76;100580.50;5132449;28;20027;-78
2023/05/27 10:54:37;;;;;;;5.28;3.72;;;;;;;20.48;42.87;100580.44;5132164;27;20019;-78
2023/05/27 10:57:03;;;;;;;8.43;3.45;;;;;;;20.47;44.11;100567.28;5136837;27;20031;-78
2023/05/27 10:59:45;;;;;;;7.80;2.92;;;;;;;20.59;43.36;100580.50;5136648;27;20110;-78
2023/05/27 11:02:11;;;;;;;6.95;3.30;;;;;;;20.42;42.62;100580.84;5136691;27;20081;-78
2023/05/27 11:04:37;;;;;;;8.50;3.08;;;;;;;20.25;43.44;100579.44;5137084;27;20049;-78
2023/05/27 11:07:03;;;;;;;9.30;3.97;;;;;;;20.22;43.03;100577.00;5136640;27;20080;-78
2023/05/27 11:09:28;;;;;;;5.57;3.65;;;;;;;20.06;43.20;100572.00;5136399;27;20054;-78
2023/05/27 11:11:55;;;;;;;7.70;3.08;;;;;;;19.98;43.12;100554.97;5136867;27;20058;-78
2023/05/27 11:14:21;;;;;;;7.57;3.72;;;;;;;19.93;43.52;100552.63;5136369;27;20046;-78
2023/05/27 11:16:51;;;;;;;6.90;3.58;;;;;;;20.11;43.34;100576.94;5136495;27;20039;-78
2023/05/27 11:19:26;;;;;;;6.07;3.60;;;;;;;20.04;43.25;100565.94;5136281;27;20413;-78